createdAt,value
2019-05-19T00:01:21.825Z,93.10
2019-05-19T00:03:51.061Z,85.47
2019-05-19T00:06:20.280Z,85.80
2019-05-19T00:08:49.572Z,83.23
2019-05-19T00:11:18.876Z,96.13
2019-05-19T00:13:48.059Z,82.17
2019-05-19T00:16:17.352Z,85.20
2019-05-19T00:18:46.602Z,85.80
2019-05-19T00:21:15.848Z,87.77
2019-05-19T00:23:45.053Z,92.73
2019-05-19T00:26:14.237Z,88.93
2019-05-19T00:28:43.545Z,96.07
2019-05-19T00:31:12.888Z,98.97
2019-05-19T00:33:42.145Z,98.17
2019-05-19T00:36:11.477Z,89.73
2019-05-19T00:38:40.662Z,90.30
2019-05-19T00:41:09.936Z,90.03
2019-05-19T00:43:39.139Z,93.17
2019-05-19T00:46:08.364Z,90.87
2019-05-19T00:48:37.524Z,96.40
2019-05-19T00:51:07.190Z,94.03
2019-05-19T00:53:36.512Z,98.37
2019-05-19T00:56:05.841Z,100.47
2019-05-19T00:58:35.757Z,95.57
2019-05-19T01:01:05.118Z,95.97
2019-05-19T01:03:34.484Z,85.07
2019-05-19T01:06:03.684Z,95.27
2019-05-19T01:08:32.937Z,89.53
2019-05-19T01:11:02.194Z,89.17
2019-05-19T01:13:31.523Z,90.87
2019-05-19T01:16:00.780Z,94.07
2019-05-19T01:18:30.057Z,96.43
2019-05-19T01:20:59.402Z,95.53
2019-05-19T01:23:28.714Z,95.40
2019-05-19T01:25:57.905Z,96.23
2019-05-19T01:28:27.221Z,97.10
2019-05-19T01:30:56.411Z,95.63
2019-05-19T01:33:25.566Z,93.97
2019-05-19T01:35:54.888Z,88.87
2019-05-19T01:38:24.055Z,98.03
2019-05-19T01:40:53.257Z,104.10
2019-05-19T01:43:22.514Z,96.27
2019-05-19T01:45:51.693Z,107.60
2019-05-19T01:48:21.186Z,102.17
2019-05-19T01:50:50.472Z,107.37
2019-05-19T01:53:19.678Z,95.97
2019-05-19T01:55:48.878Z,98.07
2019-05-19T01:58:18.173Z,102.57
2019-05-19T02:00:47.476Z,100.70
2019-05-19T02:03:16.675Z,102.00
2019-05-19T02:05:45.869Z,101.40
2019-05-19T02:08:15.182Z,99.27
2019-05-19T02:10:44.480Z,97.77
2019-05-19T02:13:13.789Z,104.80
2019-05-19T02:15:43.094Z,103.30
2019-05-19T02:18:12.289Z,97.00
2019-05-19T02:20:41.593Z,110.10
2019-05-19T02:23:10.855Z,105.67
2019-05-19T02:25:40.095Z,103.93
2019-05-19T02:28:09.402Z,97.67
2019-05-19T02:30:38.653Z,105.50
2019-05-19T02:33:07.867Z,104.50
2019-05-19T02:35:37.189Z,104.40
2019-05-19T02:38:06.374Z,103.33
2019-05-19T02:40:38.767Z,103.07
2019-05-19T02:43:08.744Z,104.67
2019-05-19T02:45:39.065Z,99.77
2019-05-19T02:48:09.900Z,112.63
2019-05-19T02:50:51.803Z,99.43
2019-05-19T02:53:10.972Z,110.90
2019-05-19T02:55:40.805Z,106.80
2019-05-19T02:58:11.953Z,105.10
2019-05-19T03:00:42.446Z,105.03
2019-05-19T03:03:11.665Z,111.20
2019-05-19T03:05:41.002Z,108.67
2019-05-19T03:08:10.263Z,99.07
2019-05-19T03:10:39.578Z,103.20
2019-05-19T03:13:08.908Z,105.87
2019-05-19T03:15:38.052Z,104.07
2019-05-19T03:18:07.376Z,107.33
2019-05-19T03:20:36.765Z,102.20
2019-05-19T03:23:06.014Z,111.87
2019-05-19T03:25:35.286Z,104.90
2019-05-19T03:28:04.513Z,102.50
2019-05-19T03:30:51.122Z,112.70
2019-05-19T03:33:22.950Z,107.60
2019-05-19T03:35:52.221Z,105.83
2019-05-19T03:38:21.521Z,105.80
2019-05-19T03:40:50.872Z,114.03
2019-05-19T03:43:20.138Z,98.83
2019-05-19T03:45:49.438Z,99.87
2019-05-19T03:48:18.867Z,109.13
2019-05-19T03:50:48.154Z,117.23
2019-05-19T03:53:17.446Z,109.07
2019-05-19T03:55:46.660Z,111.10
2019-05-19T03:58:15.833Z,112.37
2019-05-19T04:00:45.142Z,115.37
2019-05-19T04:03:14.461Z,114.10
2019-05-19T04:05:43.743Z,102.90
2019-05-19T04:08:13.104Z,115.10
2019-05-19T04:10:42.378Z,113.23
2019-05-19T04:13:11.645Z,106.87
2019-05-19T04:15:40.951Z,118.00
2019-05-19T04:18:10.314Z,115.13
2019-05-19T04:20:39.546Z,104.67
2019-05-19T04:23:08.737Z,120.17
2019-05-19T04:25:37.964Z,106.90
2019-05-19T04:28:07.244Z,114.63
2019-05-19T04:30:36.541Z,112.47
2019-05-19T04:33:05.848Z,109.73
2019-05-19T04:35:35.169Z,105.67
2019-05-19T04:38:04.456Z,119.80
2019-05-19T04:40:33.725Z,111.57
2019-05-19T04:43:03.039Z,110.77
2019-05-19T04:45:32.336Z,112.03
2019-05-19T04:48:01.662Z,114.67
2019-05-19T04:50:30.962Z,111.60
2019-05-19T04:53:00.319Z,110.60
2019-05-19T04:55:29.632Z,113.70
2019-05-19T04:57:58.828Z,107.23
2019-05-19T05:00:28.162Z,102.97
2019-05-19T05:02:57.451Z,113.07
2019-05-19T05:05:26.756Z,105.00
2019-05-19T05:07:56.041Z,105.37
2019-05-19T05:10:25.289Z,103.50
2019-05-19T05:12:54.572Z,119.03
2019-05-19T05:15:23.806Z,104.20
2019-05-19T05:17:53.072Z,108.40
2019-05-19T05:20:22.269Z,104.10
2019-05-19T05:22:51.548Z,108.27
2019-05-19T05:25:21.068Z,102.60
2019-05-19T05:27:50.407Z,101.10
2019-05-19T05:30:19.663Z,113.63
2019-05-19T05:32:48.981Z,116.10
2019-05-19T05:35:18.265Z,108.57
2019-05-19T05:37:47.449Z,109.10
2019-05-19T05:40:16.756Z,102.13
2019-05-19T05:42:46.047Z,110.77
2019-05-19T05:45:15.273Z,110.20
2019-05-19T05:47:44.521Z,112.20
2019-05-19T05:50:13.729Z,109.60
2019-05-19T05:52:43.055Z,104.33
2019-05-19T05:55:12.430Z,109.10
2019-05-19T05:57:41.777Z,115.90
2019-05-19T06:00:11.733Z,113.17
2019-05-19T06:02:40.981Z,107.50
2019-05-19T06:05:10.624Z,110.73
2019-05-19T06:07:39.785Z,109.27
2019-05-19T06:10:09.597Z,102.03
2019-05-19T06:12:38.844Z,108.30
2019-05-19T06:15:08.364Z,121.60
2019-05-19T06:17:37.616Z,103.07
2019-05-19T06:20:07.566Z,109.27
2019-05-19T06:22:37.247Z,105.80
2019-05-19T06:25:06.664Z,106.97
2019-05-19T06:27:35.933Z,113.00
2019-05-19T06:30:08.490Z,108.23
2019-05-19T06:32:48.661Z,117.80
2019-05-19T06:35:18.866Z,109.13
2019-05-19T06:37:48.181Z,110.13
2019-05-19T06:40:17.438Z,115.43
2019-05-19T06:42:46.688Z,105.23
2019-05-19T06:45:16.004Z,110.87
2019-05-19T06:47:45.281Z,115.07
2019-05-19T06:50:15.119Z,102.77
2019-05-19T06:52:44.337Z,109.33
2019-05-19T06:55:14.208Z,114.37
2019-05-19T06:57:43.536Z,116.20
2019-05-19T07:00:13.389Z,107.40
2019-05-19T07:02:42.653Z,109.13
2019-05-19T07:05:12.025Z,107.37
2019-05-19T07:07:41.401Z,108.73
2019-05-19T07:10:11.163Z,115.60
2019-05-19T07:12:40.456Z,118.83
2019-05-19T07:15:11.731Z,126.70
2019-05-19T07:17:40.963Z,121.07
2019-05-19T07:20:10.254Z,122.90
2019-05-19T07:22:39.542Z,119.47
2019-05-19T07:25:09.306Z,121.93
2019-05-19T07:27:38.601Z,123.80
2019-05-19T07:30:09.655Z,115.70
2019-05-19T07:32:39.404Z,118.87
2019-05-19T07:35:08.790Z,117.80
2019-05-19T07:37:38.236Z,123.13
2019-05-19T07:40:07.799Z,115.60
2019-05-19T07:42:37.138Z,121.10
2019-05-19T07:45:06.905Z,133.60
2019-05-19T07:47:36.298Z,124.20
2019-05-19T07:50:06.753Z,129.20
2019-05-19T07:52:36.075Z,125.63
2019-05-19T07:55:05.657Z,121.90
2019-05-19T07:57:34.933Z,138.17
2019-05-19T08:00:04.627Z,124.63
2019-05-19T08:02:33.950Z,129.10
2019-05-19T08:05:03.265Z,134.40
2019-05-19T08:07:32.540Z,121.97
2019-05-19T08:10:01.748Z,132.63
2019-05-19T08:12:30.935Z,121.63
2019-05-19T08:15:00.148Z,105.23
2019-05-19T08:17:29.425Z,105.37
2019-05-19T08:19:58.622Z,92.60
2019-05-19T08:22:27.813Z,105.33
2019-05-19T08:25:00.281Z,91.87
2019-05-19T08:27:29.644Z,97.17
2019-05-19T08:29:58.949Z,97.80
2019-05-19T08:32:29.312Z,100.93
2019-05-19T08:34:59.637Z,90.00
2019-05-19T08:37:28.961Z,96.47
2019-05-19T08:39:58.297Z,98.43
2019-05-19T08:42:27.579Z,85.60
2019-05-19T08:44:56.881Z,96.50
2019-05-19T08:47:26.120Z,96.57
2019-05-19T08:49:56.448Z,93.70
2019-05-19T08:52:25.895Z,92.20
2019-05-19T08:54:55.232Z,87.60
2019-05-19T08:57:24.631Z,91.23
2019-05-19T08:59:53.829Z,98.60
2019-05-19T09:02:23.099Z,87.90
2019-05-19T09:04:52.379Z,85.03
2019-05-19T09:07:21.677Z,81.73
2019-05-19T09:09:50.903Z,80.13
2019-05-19T09:12:20.274Z,82.37
2019-05-19T09:14:49.480Z,83.53
2019-05-19T09:17:18.768Z,78.80
2019-05-19T09:19:47.974Z,91.47
2019-05-19T09:22:17.417Z,73.60
2019-05-19T09:24:46.768Z,83.23
2019-05-19T09:27:15.997Z,77.77
2019-05-19T09:29:45.348Z,72.57
2019-05-19T09:32:14.653Z,76.40
2019-05-19T09:34:43.892Z,74.97
2019-05-19T09:37:13.486Z,78.33
2019-05-19T09:39:45.055Z,74.67
2019-05-19T09:42:14.328Z,71.13
2019-05-19T09:44:45.441Z,71.83
2019-05-19T09:47:14.705Z,66.30
2019-05-19T09:49:43.908Z,65.33
2019-05-19T09:52:17.008Z,75.47
2019-05-19T09:54:45.772Z,71.63
2019-05-19T09:57:15.626Z,68.20
2019-05-19T09:59:45.041Z,67.23
2019-05-19T10:02:14.304Z,66.27
2019-05-19T10:04:44.003Z,65.77
2019-05-19T10:07:13.442Z,62.97
2019-05-19T10:10:09.940Z,68.23
2019-05-19T10:12:40.937Z,62.93
2019-05-19T10:15:11.650Z,57.73
2019-05-19T10:17:41.161Z,66.90
2019-05-19T10:20:11.515Z,60.33
2019-05-19T10:22:41.006Z,60.53
2019-05-19T10:25:21.802Z,56.17
2019-05-19T10:27:42.359Z,63.00
2019-05-19T10:30:12.345Z,66.40
2019-05-19T10:32:41.674Z,61.43
2019-05-19T10:35:11.511Z,66.07
2019-05-19T10:37:41.333Z,68.17
2019-05-19T10:40:11.109Z,71.83
2019-05-19T10:42:41.010Z,62.03
2019-05-19T10:45:10.853Z,61.63
2019-05-19T10:47:40.516Z,60.77
2019-05-19T10:50:10.237Z,62.60
2019-05-19T10:52:39.692Z,56.40
2019-05-19T10:55:09.277Z,59.33
2019-05-19T10:57:38.753Z,64.13
2019-05-19T11:00:08.738Z,58.00
2019-05-19T11:02:41.265Z,62.43
2019-05-19T11:05:12.246Z,60.00
2019-05-19T11:07:41.685Z,64.10
2019-05-19T11:10:11.178Z,70.33
2019-05-19T11:12:40.712Z,70.57
2019-05-19T11:15:10.788Z,63.27
2019-05-19T11:17:40.154Z,61.97
2019-05-19T11:20:10.035Z,66.07
2019-05-19T11:22:39.709Z,63.03
2019-05-19T11:25:12.353Z,63.60
2019-05-19T11:27:42.314Z,65.17
2019-05-19T11:30:14.670Z,57.90
2019-05-19T11:32:45.703Z,57.33
2019-05-19T11:35:16.456Z,58.60
2019-05-19T11:37:45.848Z,50.70
2019-05-19T11:40:15.185Z,56.30
2019-05-19T11:42:46.929Z,56.83
2019-05-19T11:45:16.388Z,56.07
2019-05-19T11:47:46.575Z,55.67
2019-05-19T11:50:16.269Z,59.47
2019-05-19T11:52:46.018Z,64.00
2019-05-19T11:55:15.733Z,65.80
2019-05-19T11:57:45.457Z,67.47
2019-05-19T12:00:17.260Z,69.57
2019-05-19T12:02:46.859Z,67.33
2019-05-19T12:05:17.093Z,60.33
2019-05-19T12:07:46.914Z,65.97
2019-05-19T12:10:17.021Z,62.37
2019-05-19T12:12:46.648Z,57.67
2019-05-19T12:15:16.468Z,58.33
2019-05-19T12:17:46.881Z,55.13
2019-05-19T12:20:16.754Z,50.83
2019-05-19T12:22:46.845Z,54.07
2019-05-19T12:25:16.949Z,48.53
2019-05-19T12:27:58.457Z,48.83
2019-05-19T12:30:27.976Z,47.50
2019-05-19T12:32:59.311Z,45.90
2019-05-19T12:35:28.302Z,44.37
2019-05-19T12:37:59.344Z,38.50
2019-05-19T12:40:28.777Z,34.80
2019-05-19T12:42:58.229Z,36.43
2019-05-19T12:45:27.486Z,34.57
2019-05-19T12:47:58.093Z,35.03
2019-05-19T12:50:27.869Z,37.27
2019-05-19T12:52:58.045Z,31.30
2019-05-19T12:55:27.727Z,34.37
2019-05-19T12:57:59.872Z,33.30
2019-05-19T13:00:30.381Z,35.63
2019-05-19T13:03:01.297Z,33.20
2019-05-19T13:05:30.845Z,35.93
2019-05-19T13:08:00.559Z,36.40
2019-05-19T13:10:30.477Z,32.67
2019-05-19T13:12:59.901Z,33.77
2019-05-19T13:15:29.512Z,35.73
2019-05-19T13:17:58.936Z,36.10
2019-05-19T13:20:28.449Z,37.73
2019-05-19T13:22:57.921Z,39.70
2019-05-19T13:25:29.527Z,35.53
2019-05-19T13:28:01.837Z,37.90
2019-05-19T13:30:31.358Z,37.30
2019-05-19T13:33:00.761Z,35.27
2019-05-19T13:35:30.111Z,39.83
2019-05-19T13:38:01.495Z,36.93
2019-05-19T13:40:41.199Z,37.00
2019-05-19T13:43:08.463Z,38.20
2019-05-19T13:45:37.782Z,39.17
2019-05-19T13:48:07.204Z,39.07
2019-05-19T13:50:39.948Z,42.07
2019-05-19T13:53:09.407Z,40.20
2019-05-19T13:55:38.741Z,42.90
2019-05-19T13:58:08.209Z,38.07
2019-05-19T14:00:37.673Z,42.10
2019-05-19T14:03:07.410Z,40.63
2019-05-19T14:05:36.780Z,34.03
2019-05-19T14:08:06.231Z,37.30
2019-05-19T14:10:35.690Z,38.60
2019-05-19T14:13:05.214Z,43.00
2019-05-19T14:15:36.082Z,39.97
2019-05-19T14:18:05.630Z,44.20
2019-05-19T14:20:36.272Z,42.00
2019-05-19T14:23:05.775Z,45.70
2019-05-19T14:25:35.477Z,45.60
2019-05-19T14:28:05.224Z,43.97
2019-05-19T14:30:34.767Z,41.27
2019-05-19T14:33:06.229Z,45.97
2019-05-19T14:35:35.800Z,42.40
2019-05-19T14:38:05.180Z,42.87
2019-05-19T14:40:34.761Z,42.90
2019-05-19T14:43:04.668Z,47.37
2019-05-19T14:45:34.122Z,47.73
2019-05-19T14:48:03.509Z,46.47
2019-05-19T14:50:33.273Z,43.97
2019-05-19T14:53:04.616Z,41.27
2019-05-19T14:55:34.316Z,47.30
2019-05-19T14:58:04.212Z,45.80
2019-05-19T15:00:35.237Z,51.20
2019-05-19T15:03:05.716Z,45.20
2019-05-19T15:05:35.202Z,44.10
2019-05-19T15:08:04.688Z,44.73
2019-05-19T15:10:34.169Z,46.00
2019-05-19T15:13:03.744Z,47.50
2019-05-19T15:15:33.247Z,42.50
2019-05-19T15:18:03.177Z,43.07
2019-05-19T15:20:32.554Z,43.80
2019-05-19T15:23:01.967Z,42.17
2019-05-19T15:25:31.437Z,45.40
2019-05-19T15:28:04.538Z,46.60
2019-05-19T15:30:31.756Z,46.37
2019-05-19T15:33:02.787Z,41.83
2019-05-19T15:35:32.305Z,49.13
2019-05-19T15:38:01.972Z,49.80
2019-05-19T15:40:31.169Z,52.50
2019-05-19T15:43:00.490Z,45.83
2019-05-19T15:45:29.933Z,48.37
2019-05-19T15:47:59.215Z,49.33
2019-05-19T15:50:28.522Z,47.57
2019-05-19T15:52:57.908Z,44.73
2019-05-19T15:55:27.236Z,52.80
2019-05-19T15:57:56.560Z,52.10
2019-05-19T16:00:25.857Z,47.47
2019-05-19T16:02:56.360Z,48.17
2019-05-19T16:05:25.518Z,47.27
2019-05-19T16:07:57.309Z,47.40
2019-05-19T16:10:26.475Z,45.70
2019-05-19T16:12:55.831Z,46.70
2019-05-19T16:15:25.136Z,53.20
2019-05-19T16:17:55.063Z,54.37
2019-05-19T16:20:24.426Z,48.23
2019-05-19T16:22:53.720Z,53.03
2019-05-19T16:25:23.049Z,50.80
2019-05-19T16:27:53.110Z,47.77
2019-05-19T16:30:23.256Z,45.40
2019-05-19T16:32:54.705Z,51.37
2019-05-19T16:35:23.977Z,46.90
2019-05-19T16:37:58.182Z,61.57
2019-05-19T16:40:27.405Z,51.60
2019-05-19T16:43:27.273Z,56.53
2019-05-19T16:45:56.563Z,71.90
2019-05-19T16:48:25.822Z,67.17
2019-05-19T16:50:55.028Z,62.73
2019-05-19T16:53:24.341Z,59.50
2019-05-19T16:55:53.624Z,61.33
2019-05-19T16:58:23.001Z,58.23
2019-05-19T17:00:52.375Z,64.37
2019-05-19T17:03:21.644Z,58.03
2019-05-19T17:05:53.738Z,64.83
2019-05-19T17:08:23.247Z,65.90
2019-05-19T17:10:52.506Z,63.67
2019-05-19T17:13:21.865Z,74.17
2019-05-19T17:15:51.142Z,61.03
2019-05-19T17:18:20.448Z,70.47
2019-05-19T17:20:50.092Z,66.13
2019-05-19T17:23:19.401Z,66.57
2019-05-19T17:25:48.650Z,72.67
2019-05-19T17:28:17.928Z,70.27
2019-05-19T17:30:47.237Z,72.27
2019-05-19T17:33:16.410Z,78.90
2019-05-19T17:35:45.799Z,70.17
2019-05-19T17:38:15.137Z,74.50
2019-05-19T17:40:44.350Z,76.70
2019-05-19T17:43:13.546Z,73.30
2019-05-19T17:45:42.686Z,81.77
2019-05-19T17:48:25.618Z,84.10
2019-05-19T17:50:43.040Z,79.03
2019-05-19T17:53:12.378Z,97.70
2019-05-19T17:55:42.891Z,89.70
2019-05-19T17:58:12.188Z,82.23
2019-05-19T18:00:43.321Z,82.00
2019-05-19T18:03:13.168Z,86.70
2019-05-19T18:05:42.397Z,90.30
2019-05-19T18:08:11.672Z,89.40
2019-05-19T18:10:40.954Z,92.33
2019-05-19T18:13:10.133Z,87.07
2019-05-19T18:15:39.395Z,84.43
2019-05-19T18:18:08.733Z,86.73
2019-05-19T18:20:37.933Z,92.77
2019-05-19T18:23:07.273Z,97.50
2019-05-19T18:25:36.571Z,89.90
2019-05-19T18:28:05.865Z,88.37
2019-05-19T18:30:35.040Z,99.90
2019-05-19T18:33:04.289Z,99.87
2019-05-19T18:35:33.538Z,99.87
2019-05-19T18:38:02.927Z,102.33
2019-05-19T18:40:32.290Z,105.30
2019-05-19T18:43:01.753Z,108.67
2019-05-19T18:45:31.004Z,98.83
2019-05-19T18:48:00.303Z,110.50
2019-05-19T18:50:29.575Z,103.93
2019-05-19T18:52:58.865Z,106.97
2019-05-19T18:55:28.525Z,110.20
2019-05-19T18:57:57.884Z,102.60
2019-05-19T19:00:37.656Z,118.93
2019-05-19T19:03:09.242Z,116.40
2019-05-19T19:05:38.478Z,114.03
2019-05-19T19:08:07.882Z,115.83
2019-05-19T19:10:37.090Z,119.70
2019-05-19T19:13:06.426Z,114.63
2019-05-19T19:15:35.648Z,120.77
2019-05-19T19:18:05.902Z,131.17
2019-05-19T19:20:35.714Z,119.40
2019-05-19T19:23:05.088Z,125.17
2019-05-19T19:25:34.301Z,131.40
2019-05-19T19:28:03.585Z,118.33
2019-05-19T19:30:32.908Z,125.63
2019-05-19T19:33:02.116Z,124.53
2019-05-19T19:35:38.655Z,124.20
2019-05-19T19:38:02.409Z,130.83
2019-05-19T19:40:32.156Z,117.60
2019-05-19T19:43:01.834Z,116.07
2019-05-19T19:45:31.165Z,131.47
2019-05-19T19:48:00.469Z,118.17
2019-05-19T19:50:29.782Z,120.13
2019-05-19T19:52:58.969Z,121.55
2019-05-19T19:55:28.453Z,131.50
2019-05-19T19:57:57.792Z,126.63
2019-05-19T20:00:44.727Z,133.47
2019-05-19T20:03:14.291Z,132.43
2019-05-19T20:05:43.584Z,130.00
2019-05-19T20:08:12.926Z,123.42
2019-05-19T20:10:42.277Z,125.60
2019-05-19T20:13:11.717Z,117.20
2019-05-19T20:15:40.880Z,109.80
2019-05-19T20:18:10.196Z,90.23
2019-05-19T20:20:39.584Z,92.22
2019-05-19T20:23:08.878Z,95.28
2019-05-19T20:25:38.192Z,90.93
2019-05-19T20:28:07.516Z,83.58
2019-05-19T20:30:37.056Z,101.40
2019-05-19T20:33:06.358Z,99.50
2019-05-19T20:35:35.692Z,104.63
2019-05-19T20:38:05.192Z,123.97
2019-05-19T20:40:34.551Z,117.43
2019-05-19T20:43:03.830Z,122.30
2019-05-19T20:45:33.344Z,123.87
2019-05-19T20:48:02.590Z,124.27
2019-05-19T20:50:31.769Z,120.10
2019-05-19T20:53:01.063Z,118.43
2019-05-19T20:55:30.311Z,112.72
2019-05-19T20:57:59.641Z,103.43
2019-05-19T21:00:29.313Z,106.03
2019-05-19T21:02:58.617Z,129.07
2019-05-19T21:05:27.941Z,114.43
2019-05-19T21:07:57.217Z,125.30
2019-05-19T21:10:26.639Z,115.23
2019-05-19T21:12:57.576Z,126.78
2019-05-19T21:15:26.702Z,116.08
2019-05-19T21:17:55.953Z,112.63
2019-05-19T21:20:25.149Z,127.07
2019-05-19T21:22:54.472Z,117.63
2019-05-19T21:25:23.911Z,124.23
2019-05-19T21:27:53.270Z,111.83
2019-05-19T21:30:22.576Z,127.92
2019-05-19T21:32:51.897Z,121.90
2019-05-19T21:35:21.069Z,109.10
2019-05-19T21:37:50.277Z,117.75
2019-05-19T21:40:19.605Z,116.88
2019-05-19T21:42:48.865Z,118.87
2019-05-19T21:45:18.079Z,105.50
2019-05-19T21:47:47.389Z,104.47
2019-05-19T21:50:17.091Z,102.90
2019-05-19T21:52:46.381Z,112.28
2019-05-19T21:55:15.608Z,111.92
2019-05-19T21:57:44.870Z,99.43
2019-05-19T22:00:14.927Z,107.30
2019-05-19T22:02:44.049Z,104.10
2019-05-19T22:05:13.260Z,100.30
2019-05-19T22:08:04.099Z,106.95
2019-05-19T22:10:33.439Z,108.73
2019-05-19T22:13:02.695Z,108.22
2019-05-19T22:15:32.077Z,109.27
2019-05-19T22:18:01.346Z,112.42
2019-05-19T22:20:30.661Z,124.55
2019-05-19T22:22:59.889Z,111.50
2019-05-19T22:25:29.217Z,111.08
2019-05-19T22:27:58.386Z,120.05
2019-05-19T22:30:27.604Z,134.70
2019-05-19T22:32:56.928Z,113.90
2019-05-19T22:35:26.102Z,120.77
2019-05-19T22:37:55.406Z,117.22
2019-05-19T22:40:24.588Z,122.92
2019-05-19T22:42:53.828Z,100.13
2019-05-19T22:45:23.192Z,108.72
2019-05-19T22:47:52.378Z,124.73
2019-05-19T22:50:21.717Z,101.75
2019-05-19T22:52:50.889Z,115.20
2019-05-19T22:55:20.086Z,102.32
2019-05-19T22:57:49.308Z,109.30
2019-05-19T23:00:20.546Z,111.03
2019-05-19T23:02:49.857Z,114.25
2019-05-19T23:05:19.358Z,101.02
2019-05-19T23:07:48.568Z,106.67
2019-05-19T23:10:18.273Z,97.03
2019-05-19T23:12:47.453Z,113.30
2019-05-19T23:15:17.272Z,111.40
2019-05-19T23:17:46.496Z,112.92
2019-05-19T23:20:16.261Z,102.87
2019-05-19T23:22:45.589Z,114.50
2019-05-19T23:25:15.706Z,111.12
2019-05-19T23:27:45.006Z,112.83
2019-05-19T23:30:14.415Z,99.40
2019-05-19T23:32:43.797Z,107.15
2019-05-19T23:35:13.305Z,100.95
2019-05-19T23:37:42.600Z,107.92
2019-05-19T23:40:12.330Z,116.95
2019-05-19T23:42:41.610Z,108.15
2019-05-19T23:45:10.873Z,104.72
2019-05-19T23:47:40.106Z,102.60
2019-05-19T23:50:10.137Z,107.83
2019-05-19T23:52:39.457Z,110.05
2019-05-19T23:55:08.724Z,96.65
2019-05-19T23:57:38.045Z,98.95
